Terminal Aerodrome Forecast
Issued by NWS

Home | Current Version | Previous Version | Text Only | Print | Product List | Glossary On
Versions: 1 2 3 4 5 6 7 8 9 10 11 12 13 14 15 16 17 18 19 20 21
000
FTUS41 KAKQ 220700 AAA
TAFPHF
TAF AMD
KPHF 220738Z 2208/2306 10004KT P6SM SCT025
      TEMPO 2209/2211 4SM BR
     FM221400 12005KT P6SM BKN025 BKN040
     FM222000 12009KT P6SM SCT035 BKN100=

USA.gov is the U.S. government's official web portal to all federal, state and local government web resources and services.